sensor_id;sensor_type;location;lat;lon;timestamp;pressure;altitude;pressure_sealevel;temperature;humidity
78223;BME280;67497;53.058;21.618;2024-01-16T00:01:26;98018.66;;;-3.77;73.65
78223;BME280;67497;53.058;21.618;2024-01-16T00:03:26;98024.50;;;-3.72;73.29
78223;BME280;67497;53.058;21.618;2024-01-16T00:05:27;98015.03;;;-3.76;73.24
78223;BME280;67497;53.058;21.618;2024-01-16T00:07:27;98013.06;;;-3.85;73.66
78223;BME280;67497;53.058;21.618;2024-01-16T00:09:28;98017.94;;;-3.90;73.69
78223;BME280;67497;53.058;21.618;2024-01-16T00:11:28;98027.41;;;-3.86;73.41
78223;BME280;67497;53.058;21.618;2024-01-16T00:13:29;98030.81;;;-3.84;73.96
78223;BME280;67497;53.058;21.618;2024-01-16T00:15:29;98052.44;;;-3.87;73.95
78223;BME280;67497;53.058;21.618;2024-01-16T00:17:29;98030.44;;;-3.91;nan
78223;BME280;67497;53.058;21.618;2024-01-16T00:19:30;98033.97;;;-3.90;73.36
78223;BME280;67497;53.058;21.618;2024-01-16T00:21:30;98061.94;;;-3.83;73.48
78223;BME280;67497;53.058;21.618;2024-01-16T00:23:39;98044.41;;;-3.98;73.68
78223;BME280;67497;53.058;21.618;2024-01-16T00:25:39;98046.84;;;-3.95;73.17
78223;BME280;67497;53.058;21.618;2024-01-16T00:27:41;98056.31;;;-3.91;73.08
78223;BME280;67497;53.058;21.618;2024-01-16T00:29:42;98060.72;;;-3.90;73.61
78223;BME280;67497;53.058;21.618;2024-01-16T00:31:43;98090.88;;;-3.77;72.62
78223;BME280;67497;53.058;21.618;2024-01-16T00:33:43;98082.59;;;-3.85;72.83
78223;BME280;67497;53.058;21.618;2024-01-16T00:35:44;98086.59;;;-3.91;72.70
78223;BME280;67497;53.058;21.618;2024-01-16T00:37:44;98086.72;;;-3.92;72.62
78223;BME280;67497;53.058;21.618;2024-01-16T00:39:44;98065.03;;;-4.11;72.59
78223;BME280;67497;53.058;21.618;2024-01-16T00:41:45;98108.84;;;-3.90;72.32
78223;BME280;67497;53.058;21.618;2024-01-16T00:43:45;98093.50;;;-3.99;72.50
78223;BME280;67497;53.058;21.618;2024-01-16T00:45:46;98087.28;;;-4.11;72.44
78223;BME280;67497;53.058;21.618;2024-01-16T00:47:48;98116.38;;;-3.95;72.12
78223;BME280;67497;53.058;21.618;2024-01-16T00:49:48;98128.75;;;-3.94;72.35
78223;BME280;67497;53.058;21.618;2024-01-16T00:51:48;98133.50;;;-3.98;72.19
78223;BME280;67497;53.058;21.618;2024-01-16T00:53:49;98129.34;;;-4.02;71.37
78223;BME280;67497;53.058;21.618;2024-01-16T00:55:49;98124.84;;;-4.01;70.74
78223;BME280;67497;53.058;21.618;2024-01-16T00:57:51;98146.88;;;-3.98;71.62
78223;BME280;67497;53.058;21.618;2024-01-16T00:59:52;98148.47;;;-3.95;71.49
78223;BME280;67497;53.058;21.618;2024-01-16T01:01:52;98122.63;;;-4.07;69.98
78223;BME280;67497;53.058;21.618;2024-01-16T01:03:53;98133.09;;;-4.04;69.66
78223;BME280;67497;53.058;21.618;2024-01-16T01:05:53;98136.22;;;-4.10;69.44
78223;BME280;67497;53.058;21.618;2024-01-16T01:07:55;98152.53;;;-4.02;69.06
78223;BME280;67497;53.058;21.618;2024-01-16T01:09:55;98145.00;;;-4.08;69.86
78223;BME280;67497;53.058;21.618;2024-01-16T01:11:56;98145.25;;;-4.11;69.24
78223;BME280;67497;53.058;21.618;2024-01-16T01:13:56;98167.63;;;-4.01;69.26
78223;BME280;67497;53.058;21.618;2024-01-16T01:15:56;98155.44;;;-4.16;68.40
78223;BME280;67497;53.058;21.618;2024-01-16T01:17:57;98153.50;;;-4.14;68.73
78223;BME280;67497;53.058;21.618;2024-01-16T01:19:57;98181.84;;;-4.01;68.71
78223;BME280;67497;53.058;21.618;2024-01-16T01:21:58;98157.84;;;-4.13;69.06
78223;BME280;67497;53.058;21.618;2024-01-16T01:23:58;98153.84;;;-4.19;68.35
78223;BME280;67497;53.058;21.618;2024-01-16T01:25:58;98192.50;;;-4.12;69.85
78223;BME280;67497;53.058;21.618;2024-01-16T01:27:59;98178.28;;;-4.12;67.92
78223;BME280;67497;53.058;21.618;2024-01-16T01:30:00;98212.81;;;-4.09;67.18
78223;BME280;67497;53.058;21.618;2024-01-16T01:32:00;98201.59;;;-4.14;68.20
78223;BME280;67497;53.058;21.618;2024-01-16T01:34:01;98226.16;;;-4.09;68.49
78223;BME280;67497;53.058;21.618;2024-01-16T01:36:01;98212.50;;;-4.17;68.20
78223;BME280;67497;53.058;21.618;2024-01-16T01:38:02;98194.59;;;-4.28;67.37
78223;BME280;67497;53.058;21.618;2024-01-16T01:40:03;98209.56;;;-4.26;67.63
78223;BME280;67497;53.058;21.618;2024-01-16T01:42:03;98233.69;;;-4.14;67.22
78223;BME280;67497;53.058;21.618;2024-01-16T01:44:05;98236.69;;;-4.19;67.01
78223;BME280;67497;53.058;21.618;2024-01-16T01:46:16;98244.31;;;-4.26;67.14
78223;BME280;67497;53.058;21.618;2024-01-16T01:48:18;98235.78;;;-4.31;67.20
78223;BME280;67497;53.058;21.618;2024-01-16T01:50:18;98236.34;;;-4.38;65.49
78223;BME280;67497;53.058;21.618;2024-01-16T01:52:18;98259.00;;;-4.44;67.15
78223;BME280;67497;53.058;21.618;2024-01-16T01:54:19;98252.59;;;-4.54;66.20
78223;BME280;67497;53.058;21.618;2024-01-16T01:56:21;98258.41;;;-4.60;66.88
78223;BME280;67497;53.058;21.618;2024-01-16T01:58:22;98258.84;;;-4.66;67.28
78223;BME280;67497;53.058;21.618;2024-01-16T02:00:23;98262.47;;;-4.67;67.25
78223;BME280;67497;53.058;21.618;2024-01-16T02:02:23;98270.81;;;-4.71;68.06
78223;BME280;67497;53.058;21.618;2024-01-16T02:04:24;98259.69;;;-4.78;67.66
78223;BME280;67497;53.058;21.618;2024-01-16T02:06:26;98257.38;;;-4.82;67.79
78223;BME280;67497;53.058;21.618;2024-01-16T02:08:26;98283.63;;;-4.89;68.53
78223;BME280;67497;53.058;21.618;2024-01-16T02:10:27;98287.28;;;-4.90;68.67
78223;BME280;67497;53.058;21.618;2024-01-16T02:12:27;98279.16;;;-5.01;68.48
78223;BME280;67497;53.058;21.618;2024-01-16T02:14:28;98288.91;;;-5.00;68.53
78223;BME280;67497;53.058;21.618;2024-01-16T02:16:38;98299.66;;;-5.02;69.10
78223;BME280;67497;53.058;21.618;2024-01-16T02:18:39;98312.06;;;-5.01;68.04
78223;BME280;67497;53.058;21.618;2024-01-16T02:20:39;98295.06;;;-5.12;68.51
78223;BME280;67497;53.058;21.618;2024-01-16T02:22:44;98314.59;;;-5.12;68.44
78223;BME280;67497;53.058;21.618;2024-01-16T02:24:46;98314.81;;;-5.15;68.99
78223;BME280;67497;53.058;21.618;2024-01-16T02:26:47;98310.75;;;-5.20;69.15
78223;BME280;67497;53.058;21.618;2024-01-16T02:28:47;98315.34;;;-5.22;69.24
78223;BME280;67497;53.058;21.618;2024-01-16T02:30:48;98313.63;;;-5.23;69.24
78223;BME280;67497;53.058;21.618;2024-01-16T02:32:48;98331.16;;;-5.19;68.83
78223;BME280;67497;53.058;21.618;2024-01-16T02:34:49;98327.16;;;-5.26;68.82
78223;BME280;67497;53.058;21.618;2024-01-16T02:36:50;98353.97;;;-5.28;68.40
78223;BME280;67497;53.058;21.618;2024-01-16T02:38:51;98357.59;;;-5.29;69.51
78223;BME280;67497;53.058;21.618;2024-01-16T02:40:51;98358.00;;;-5.35;70.09
78223;BME280;67497;53.058;21.618;2024-01-16T02:42:52;98367.84;;;-5.35;70.33
78223;BME280;67497;53.058;21.618;2024-01-16T02:44:52;98349.75;;;-5.45;70.42
78223;BME280;67497;53.058;21.618;2024-01-16T02:46:52;98370.25;;;-5.45;70.09
78223;BME280;67497;53.058;21.618;2024-01-16T02:48:53;98359.78;;;-5.48;70.15
78223;BME280;67497;53.058;21.618;2024-01-16T02:50:53;98371.09;;;-5.45;70.18
78223;BME280;67497;53.058;21.618;2024-01-16T02:52:54;98368.56;;;-5.46;69.52
78223;BME280;67497;53.058;21.618;2024-01-16T02:54:54;98384.75;;;-5.49;69.99
78223;BME280;67497;53.058;21.618;2024-01-16T02:56:54;98379.91;;;-5.57;70.75
78223;BME280;67497;53.058;21.618;2024-01-16T02:58:55;98388.50;;;-5.52;70.53
78223;BME280;67497;53.058;21.618;2024-01-16T03:00:55;98394.41;;;-5.61;71.46
78223;BME280;67497;53.058;21.618;2024-01-16T03:02:56;98388.34;;;-5.63;70.95
78223;BME280;67497;53.058;21.618;2024-01-16T03:04:56;98400.13;;;-5.67;70.98
78223;BME280;67497;53.058;21.618;2024-01-16T03:06:57;98392.50;;;-5.59;70.45
78223;BME280;67497;53.058;21.618;2024-01-16T03:08:57;98382.34;;;-5.66;70.73
78223;BME280;67497;53.058;21.618;2024-01-16T03:10:57;98395.00;;;-5.70;71.40
78223;BME280;67497;53.058;21.618;2024-01-16T03:12:58;98397.38;;;-5.65;70.85
78223;BME280;67497;53.058;21.618;2024-01-16T03:14:58;98392.34;;;-5.70;69.98
78223;BME280;67497;53.058;21.618;2024-01-16T03:17:03;98392.53;;;-5.73;69.70
78223;BME280;67497;53.058;21.618;2024-01-16T03:19:04;98400.44;;;-5.71;70.63
78223;BME280;67497;53.058;21.618;2024-01-16T03:21:07;98406.47;;;-5.82;70.07
78223;BME280;67497;53.058;21.618;2024-01-16T03:23:07;98427.13;;;-5.71;70.04
78223;BME280;67497;53.058;21.618;2024-01-16T03:25:09;98434.38;;;-5.73;68.79
78223;BME280;67497;53.058;21.618;2024-01-16T03:27:09;98423.22;;;-5.80;68.40
78223;BME280;67497;53.058;21.618;2024-01-16T03:29:10;98417.38;;;-5.85;68.53
78223;BME280;67497;53.058;21.618;2024-01-16T03:31:12;98429.34;;;-5.92;68.74
78223;BME280;67497;53.058;21.618;2024-01-16T03:33:14;98445.34;;;-5.92;68.68
78223;BME280;67497;53.058;21.618;2024-01-16T03:35:14;98441.75;;;-5.91;68.77
78223;BME280;67497;53.058;21.618;2024-01-16T03:37:15;98437.28;;;-5.90;68.79
78223;BME280;67497;53.058;21.618;2024-01-16T03:39:15;98447.25;;;-5.94;68.05
78223;BME280;67497;53.058;21.618;2024-01-16T03:41:15;98450.13;;;-5.97;68.90
78223;BME280;67497;53.058;21.618;2024-01-16T03:43:16;98464.31;;;-5.96;68.20
78223;BME280;67497;53.058;21.618;2024-01-16T03:45:16;98460.22;;;-6.02;68.45
78223;BME280;67497;53.058;21.618;2024-01-16T03:47:16;98461.19;;;-6.03;67.96
78223;BME280;67497;53.058;21.618;2024-01-16T03:49:17;98472.03;;;-6.06;68.48
78223;BME280;67497;53.058;21.618;2024-01-16T03:51:17;98465.38;;;-6.13;68.65
78223;BME280;67497;53.058;21.618;2024-01-16T03:53:20;98467.16;;;-6.14;68.17
78223;BME280;67497;53.058;21.618;2024-01-16T03:55:21;98481.91;;;-6.08;68.33
78223;BME280;67497;53.058;21.618;2024-01-16T03:57:21;98470.44;;;-6.09;68.25
78223;BME280;67497;53.058;21.618;2024-01-16T03:59:22;98469.94;;;-6.15;68.06
78223;BME280;67497;53.058;21.618;2024-01-16T04:01:33;98494.50;;;-6.10;69.29
78223;BME280;67497;53.058;21.618;2024-01-16T04:03:33;98487.84;;;-6.17;69.01
78223;BME280;67497;53.058;21.618;2024-01-16T04:05:35;98496.78;;;-6.18;69.48
78223;BME280;67497;53.058;21.618;2024-01-16T04:07:35;98505.91;;;-6.22;69.35
78223;BME280;67497;53.058;21.618;2024-01-16T04:09:35;98487.53;;;-6.27;69.07
78223;BME280;67497;53.058;21.618;2024-01-16T04:11:36;98514.34;;;-6.30;69.54
78223;BME280;67497;53.058;21.618;2024-01-16T04:13:37;98520.53;;;-6.29;69.30
78223;BME280;67497;53.058;21.618;2024-01-16T04:15:38;98532.25;;;-6.32;69.08
78223;BME280;67497;53.058;21.618;2024-01-16T04:17:39;98513.88;;;-6.36;68.56
78223;BME280;67497;53.058;21.618;2024-01-16T04:19:39;98531.38;;;-6.32;68.57
78223;BME280;67497;53.058;21.618;2024-01-16T04:21:40;98516.38;;;-6.33;68.55
78223;BME280;67497;53.058;21.618;2024-01-16T04:23:41;98527.03;;;-6.33;68.45
78223;BME280;67497;53.058;21.618;2024-01-16T04:25:42;98528.16;;;-6.37;68.21
78223;BME280;67497;53.058;21.618;2024-01-16T04:27:42;98531.38;;;-6.32;67.78
78223;BME280;67497;53.058;21.618;2024-01-16T04:29:42;98537.09;;;-6.38;67.86
78223;BME280;67497;53.058;21.618;2024-01-16T04:31:43;98528.31;;;-6.40;68.31
78223;BME280;67497;53.058;21.618;2024-01-16T04:33:44;98535.28;;;-6.38;67.39
78223;BME280;67497;53.058;21.618;2024-01-16T04:35:44;98534.81;;;-6.44;66.85
78223;BME280;67497;53.058;21.618;2024-01-16T04:37:44;98549.63;;;-6.40;67.41
78223;BME280;67497;53.058;21.618;2024-01-16T04:39:45;98543.38;;;-6.39;66.92
78223;BME280;67497;53.058;21.618;2024-01-16T04:41:45;98543.38;;;-6.39;68.01
78223;BME280;67497;53.058;21.618;2024-01-16T04:43:45;98547.53;;;-6.49;68.71
78223;BME280;67497;53.058;21.618;2024-01-16T04:45:46;98551.25;;;-6.52;67.46
78223;BME280;67497;53.058;21.618;2024-01-16T04:47:46;98557.41;;;-6.51;67.90
78223;BME280;67497;53.058;21.618;2024-01-16T04:49:46;98568.25;;;-6.54;67.82
78223;BME280;67497;53.058;21.618;2024-01-16T04:51:47;98570.31;;;-6.59;68.14
78223;BME280;67497;53.058;21.618;2024-01-16T04:53:47;98555.59;;;-6.65;68.07
78223;BME280;67497;53.058;21.618;2024-01-16T04:55:48;98561.09;;;-6.68;68.20
78223;BME280;67497;53.058;21.618;2024-01-16T04:57:48;98554.72;;;-6.65;68.55
78223;BME280;67497;53.058;21.618;2024-01-16T04:59:48;98562.13;;;-6.71;67.98
78223;BME280;67497;53.058;21.618;2024-01-16T05:01:50;98559.72;;;-6.75;67.68
78223;BME280;67497;53.058;21.618;2024-01-16T05:03:50;98562.56;;;-6.78;67.78
78223;BME280;67497;53.058;21.618;2024-01-16T05:05:50;98573.19;;;-6.78;67.85
78223;BME280;67497;53.058;21.618;2024-01-16T05:07:51;98573.03;;;-6.75;68.94
78223;BME280;67497;53.058;21.618;2024-01-16T05:09:52;98569.88;;;-6.82;68.59
78223;BME280;67497;53.058;21.618;2024-01-16T05:11:52;98568.72;;;-6.78;68.39
78223;BME280;67497;53.058;21.618;2024-01-16T05:13:53;98577.31;;;-6.73;67.98
78223;BME280;67497;53.058;21.618;2024-01-16T05:15:57;98578.91;;;-6.84;68.83
78223;BME280;67497;53.058;21.618;2024-01-16T05:17:58;98581.81;;;-6.89;68.69
78223;BME280;67497;53.058;21.618;2024-01-16T05:19:59;98590.47;;;-6.85;69.06
78223;BME280;67497;53.058;21.618;2024-01-16T05:21:59;98603.03;;;-6.87;68.59
78223;BME280;67497;53.058;21.618;2024-01-16T05:24:00;98597.00;;;-6.91;69.04
78223;BME280;67497;53.058;21.618;2024-01-16T05:26:00;98610.41;;;-6.92;68.54
78223;BME280;67497;53.058;21.618;2024-01-16T05:28:01;98618.28;;;-6.91;68.55
78223;BME280;67497;53.058;21.618;2024-01-16T05:30:01;98625.59;;;-6.94;68.70
78223;BME280;67497;53.058;21.618;2024-01-16T05:32:02;98626.28;;;-6.91;68.66
78223;BME280;67497;53.058;21.618;2024-01-16T05:34:02;98629.97;;;-6.93;68.72
78223;BME280;67497;53.058;21.618;2024-01-16T05:36:02;98625.53;;;-6.93;67.91
78223;BME280;67497;53.058;21.618;2024-01-16T05:38:04;98627.22;;;-6.92;69.01
78223;BME280;67497;53.058;21.618;2024-01-16T05:40:05;98624.13;;;-7.00;68.28
78223;BME280;67497;53.058;21.618;2024-01-16T05:42:07;98629.56;;;-7.01;68.37
78223;BME280;67497;53.058;21.618;2024-01-16T05:44:08;98642.97;;;-7.03;67.98
78223;BME280;67497;53.058;21.618;2024-01-16T05:46:09;98638.56;;;-7.04;69.44
78223;BME280;67497;53.058;21.618;2024-01-16T05:48:10;98637.38;;;-7.14;69.31
78223;BME280;67497;53.058;21.618;2024-01-16T05:50:11;98635.81;;;-7.18;69.28
78223;BME280;67497;53.058;21.618;2024-01-16T05:52:11;98640.25;;;-7.18;69.53
78223;BME280;67497;53.058;21.618;2024-01-16T05:54:11;98648.34;;;-7.20;69.72
78223;BME280;67497;53.058;21.618;2024-01-16T05:56:12;98651.00;;;-7.20;69.25
78223;BME280;67497;53.058;21.618;2024-01-16T05:58:12;98650.84;;;-7.17;69.09
78223;BME280;67497;53.058;21.618;2024-01-16T06:00:13;98658.81;;;-7.17;69.48
78223;BME280;67497;53.058;21.618;2024-01-16T06:02:13;98655.56;;;-7.22;69.03
78223;BME280;67497;53.058;21.618;2024-01-16T06:04:14;98671.75;;;-7.27;69.82
78223;BME280;67497;53.058;21.618;2024-01-16T06:06:15;98671.69;;;-7.25;69.74
78223;BME280;67497;53.058;21.618;2024-01-16T06:08:16;98677.94;;;-7.26;69.75
78223;BME280;67497;53.058;21.618;2024-01-16T06:10:16;98686.00;;;-7.28;69.09
78223;BME280;67497;53.058;21.618;2024-01-16T06:12:17;98681.53;;;-7.27;69.58
78223;BME280;67497;53.058;21.618;2024-01-16T06:14:17;98697.41;;;-7.25;69.57
78223;BME280;67497;53.058;21.618;2024-01-16T06:16:21;98696.72;;;-7.29;69.53
78223;BME280;67497;53.058;21.618;2024-01-16T06:18:22;98700.22;;;-7.29;70.31
78223;BME280;67497;53.058;21.618;2024-01-16T06:20:23;98706.69;;;-7.33;70.02
78223;BME280;67497;53.058;21.618;2024-01-16T06:22:25;98705.38;;;-7.41;70.00
78223;BME280;67497;53.058;21.618;2024-01-16T06:24:26;98708.25;;;-7.46;70.18
78223;BME280;67497;53.058;21.618;2024-01-16T06:26:26;98718.66;;;-7.41;70.75
78223;BME280;67497;53.058;21.618;2024-01-16T06:28:26;98713.34;;;-7.41;70.66
78223;BME280;67497;53.058;21.618;2024-01-16T06:30:27;98725.06;;;-7.45;70.42
78223;BME280;67497;53.058;21.618;2024-01-16T06:32:27;98723.13;;;-7.42;71.88
78223;BME280;67497;53.058;21.618;2024-01-16T06:34:28;98733.19;;;-7.48;71.47
78223;BME280;67497;53.058;21.618;2024-01-16T06:36:28;98730.88;;;-7.54;71.84
78223;BME280;67497;53.058;21.618;2024-01-16T06:38:30;98748.22;;;-7.47;72.04
78223;BME280;67497;53.058;21.618;2024-01-16T06:40:30;98743.84;;;-7.48;71.34
78223;BME280;67497;53.058;21.618;2024-01-16T06:42:31;98737.13;;;-7.55;71.47
78223;BME280;67497;53.058;21.618;2024-01-16T06:44:31;98753.69;;;-7.50;71.91
78223;BME280;67497;53.058;21.618;2024-01-16T06:46:32;98753.94;;;-7.55;71.65
78223;BME280;67497;53.058;21.618;2024-01-16T06:48:35;98754.81;;;-7.54;71.55
78223;BME280;67497;53.058;21.618;2024-01-16T06:50:36;98751.50;;;-7.59;71.81
78223;BME280;67497;53.058;21.618;2024-01-16T06:52:36;98767.88;;;-7.50;72.21
78223;BME280;67497;53.058;21.618;2024-01-16T06:54:36;98761.84;;;-7.53;71.34
78223;BME280;67497;53.058;21.618;2024-01-16T06:56:37;98771.53;;;-7.52;71.92
78223;BME280;67497;53.058;21.618;2024-01-16T06:58:37;98769.03;;;-7.55;71.19
78223;BME280;67497;53.058;21.618;2024-01-16T07:00:37;98762.00;;;-7.56;72.10
78223;BME280;67497;53.058;21.618;2024-01-16T07:02:38;98769.19;;;-7.58;71.32
78223;BME280;67497;53.058;21.618;2024-01-16T07:04:38;98782.03;;;-7.49;71.20
78223;BME280;67497;53.058;21.618;2024-01-16T07:06:38;98779.69;;;-7.55;71.81
78223;BME280;67497;53.058;21.618;2024-01-16T07:08:39;98769.34;;;-7.61;71.24
78223;BME280;67497;53.058;21.618;2024-01-16T07:10:39;98774.19;;;-7.52;70.92
78223;BME280;67497;53.058;21.618;2024-01-16T07:12:40;98780.59;;;-7.39;71.17
78223;BME280;67497;53.058;21.618;2024-01-16T07:14:40;98791.88;;;-7.18;69.80
78223;BME280;67497;53.058;21.618;2024-01-16T07:16:40;98782.41;;;-7.07;68.52
78223;BME280;67497;53.058;21.618;2024-01-16T07:18:41;98803.34;;;-6.68;68.07
78223;BME280;67497;53.058;21.618;2024-01-16T07:20:41;98796.06;;;-6.33;67.71
78223;BME280;67497;53.058;21.618;2024-01-16T07:22:42;98807.53;;;-5.86;65.40
78223;BME280;67497;53.058;21.618;2024-01-16T07:24:42;98799.72;;;-5.45;63.98
78223;BME280;67497;53.058;21.618;2024-01-16T07:26:42;98820.94;;;-5.28;62.13
78223;BME280;67497;53.058;21.618;2024-01-16T07:28:43;98814.00;;;-5.16;61.81
78223;BME280;67497;53.058;21.618;2024-01-16T07:30:44;98822.91;;;-5.31;61.95
78223;BME280;67497;53.058;21.618;2024-01-16T07:32:44;98823.13;;;-5.20;61.39
78223;BME280;67497;53.058;21.618;2024-01-16T07:34:45;98820.34;;;-5.19;61.48
78223;BME280;67497;53.058;21.618;2024-01-16T07:36:45;98829.66;;;-4.54;60.77
78223;BME280;67497;53.058;21.618;2024-01-16T07:38:46;98824.09;;;-4.22;58.56
78223;BME280;67497;53.058;21.618;2024-01-16T07:40:46;98832.91;;;-3.67;56.72
78223;BME280;67497;53.058;21.618;2024-01-16T07:42:46;98837.44;;;-3.28;55.53
78223;BME280;67497;53.058;21.618;2024-01-16T07:44:47;98841.66;;;-3.12;54.86
78223;BME280;67497;53.058;21.618;2024-01-16T07:46:47;98849.53;;;-3.23;55.18
78223;BME280;67497;53.058;21.618;2024-01-16T07:48:48;98849.91;;;-2.26;52.28
78223;BME280;67497;53.058;21.618;2024-01-16T07:50:49;98840.81;;;-2.49;52.45
78223;BME280;67497;53.058;21.618;2024-01-16T07:52:49;98837.75;;;-2.07;52.70
78223;BME280;67497;53.058;21.618;2024-01-16T07:54:51;98835.34;;;-1.99;51.30
78223;BME280;67497;53.058;21.618;2024-01-16T07:56:51;98844.03;;;-2.44;51.62
78223;BME280;67497;53.058;21.618;2024-01-16T07:58:51;98843.50;;;-2.74;53.07
78223;BME280;67497;53.058;21.618;2024-01-16T08:00:52;98840.38;;;-2.56;53.37
78223;BME280;67497;53.058;21.618;2024-01-16T08:02:52;98856.91;;;-2.49;52.50
78223;BME280;67497;53.058;21.618;2024-01-16T08:04:53;98857.72;;;-2.23;52.59
78223;BME280;67497;53.058;21.618;2024-01-16T08:06:53;98860.56;;;-1.65;50.28
78223;BME280;67497;53.058;21.618;2024-01-16T08:08:53;98868.22;;;-1.71;50.27
78223;BME280;67497;53.058;21.618;2024-01-16T08:10:54;98868.38;;;-1.86;50.86
78223;BME280;67497;53.058;21.618;2024-01-16T08:12:56;98863.44;;;-1.92;50.77
78223;BME280;67497;53.058;21.618;2024-01-16T08:14:56;98875.25;;;-1.82;50.45
78223;BME280;67497;53.058;21.618;2024-01-16T08:16:56;98881.69;;;-1.84;51.00
78223;BME280;67497;53.058;21.618;2024-01-16T08:18:57;98877.09;;;-1.95;51.50
78223;BME280;67497;53.058;21.618;2024-01-16T08:20:57;98873.03;;;-1.64;49.94
78223;BME280;67497;53.058;21.618;2024-01-16T08:22:58;98884.34;;;-2.58;51.95
78223;BME280;67497;53.058;21.618;2024-01-16T08:24:58;98887.31;;;-2.75;52.53
78223;BME280;67497;53.058;21.618;2024-01-16T08:26:58;98895.69;;;-2.67;52.57
78223;BME280;67497;53.058;21.618;2024-01-16T08:28:59;98893.88;;;-2.79;53.12
78223;BME280;67497;53.058;21.618;2024-01-16T08:30:59;98887.34;;;-2.50;52.33
78223;BME280;67497;53.058;21.618;2024-01-16T08:32:59;98897.28;;;-2.77;53.41
78223;BME280;67497;53.058;21.618;2024-01-16T08:35:00;98899.16;;;-3.17;54.75
78223;BME280;67497;53.058;21.618;2024-01-16T08:37:00;98905.03;;;-3.25;54.52
78223;BME280;67497;53.058;21.618;2024-01-16T08:39:01;98913.38;;;-3.70;55.36
78223;BME280;67497;53.058;21.618;2024-01-16T08:41:01;98917.63;;;-4.65;57.93
78223;BME280;67497;53.058;21.618;2024-01-16T08:43:03;98905.84;;;-4.33;58.35
78223;BME280;67497;53.058;21.618;2024-01-16T08:45:04;98923.94;;;-4.38;58.68
78223;BME280;67497;53.058;21.618;2024-01-16T08:47:05;98920.31;;;-4.37;58.59
78223;BME280;67497;53.058;21.618;2024-01-16T08:49:06;98915.16;;;-4.40;58.78
78223;BME280;67497;53.058;21.618;2024-01-16T08:51:07;98920.31;;;-4.51;58.94
78223;BME280;67497;53.058;21.618;2024-01-16T08:53:09;98921.16;;;-4.64;59.28
78223;BME280;67497;53.058;21.618;2024-01-16T08:55:09;98925.44;;;-4.62;59.79
78223;BME280;67497;53.058;21.618;2024-01-16T08:57:10;98918.91;;;-4.86;60.23
78223;BME280;67497;53.058;21.618;2024-01-16T08:59:10;98925.06;;;-4.70;60.16
78223;BME280;67497;53.058;21.618;2024-01-16T09:01:11;98933.84;;;-4.68;59.89
78223;BME280;67497;53.058;21.618;2024-01-16T09:03:11;98939.31;;;-4.55;59.67
78223;BME280;67497;53.058;21.618;2024-01-16T09:05:12;98925.09;;;-4.56;59.53
78223;BME280;67497;53.058;21.618;2024-01-16T09:07:13;98927.19;;;-4.61;59.96
78223;BME280;67497;53.058;21.618;2024-01-16T09:09:15;98937.09;;;-4.63;59.89
78223;BME280;67497;53.058;21.618;2024-01-16T09:11:16;98943.00;;;-4.72;60.20
78223;BME280;67497;53.058;21.618;2024-01-16T09:13:16;98933.94;;;-4.69;59.56
78223;BME280;67497;53.058;21.618;2024-01-16T09:15:17;98938.03;;;-4.64;60.23
78223;BME280;67497;53.058;21.618;2024-01-16T09:17:17;98944.16;;;-4.62;59.36
78223;BME280;67497;53.058;21.618;2024-01-16T09:19:17;98946.28;;;-4.53;59.11
78223;BME280;67497;53.058;21.618;2024-01-16T09:21:18;98954.78;;;-4.46;59.48
78223;BME280;67497;53.058;21.618;2024-01-16T09:23:18;98954.22;;;-4.37;59.09
78223;BME280;67497;53.058;21.618;2024-01-16T09:25:19;98942.00;;;-4.41;58.61
78223;BME280;67497;53.058;21.618;2024-01-16T09:27:20;98954.03;;;-4.20;58.75
78223;BME280;67497;53.058;21.618;2024-01-16T09:29:20;98952.41;;;-4.37;58.45
78223;BME280;67497;53.058;21.618;2024-01-16T09:31:22;98956.53;;;-4.17;58.07
78223;BME280;67497;53.058;21.618;2024-01-16T09:33:23;98949.25;;;-4.01;57.68
78223;BME280;67497;53.058;21.618;2024-01-16T09:35:25;98959.09;;;-4.01;56.96
78223;BME280;67497;53.058;21.618;2024-01-16T09:37:25;98958.22;;;-4.16;56.92
78223;BME280;67497;53.058;21.618;2024-01-16T09:39:26;98960.59;;;-3.97;56.71
78223;BME280;67497;53.058;21.618;2024-01-16T09:41:26;98968.25;;;-3.77;56.69
78223;BME280;67497;53.058;21.618;2024-01-16T09:43:27;98967.69;;;-3.96;56.11
78223;BME280;67497;53.058;21.618;2024-01-16T09:45:29;98969.41;;;-3.95;55.90
78223;BME280;67497;53.058;21.618;2024-01-16T09:47:30;98977.38;;;-3.67;55.69
78223;BME280;67497;53.058;21.618;2024-01-16T09:49:33;98972.94;;;-3.40;55.35
78223;BME280;67497;53.058;21.618;2024-01-16T09:51:33;98970.19;;;-3.38;54.72
78223;BME280;67497;53.058;21.618;2024-01-16T09:53:34;98990.38;;;-3.47;54.43
78223;BME280;67497;53.058;21.618;2024-01-16T09:55:34;98993.75;;;-3.72;54.48
78223;BME280;67497;53.058;21.618;2024-01-16T09:57:37;98988.28;;;-3.70;54.39
78223;BME280;67497;53.058;21.618;2024-01-16T09:59:39;98994.59;;;-3.71;54.90
78223;BME280;67497;53.058;21.618;2024-01-16T10:01:40;98989.63;;;-3.63;54.09
78223;BME280;67497;53.058;21.618;2024-01-16T10:03:44;98989.13;;;-3.55;54.65
78223;BME280;67497;53.058;21.618;2024-01-16T10:05:47;99002.44;;;-3.68;54.56
78223;BME280;67497;53.058;21.618;2024-01-16T10:07:49;98997.59;;;-3.35;54.37
78223;BME280;67497;53.058;21.618;2024-01-16T10:09:50;99007.00;;;-3.56;53.35
78223;BME280;67497;53.058;21.618;2024-01-16T10:11:51;99000.97;;;-3.59;54.90
78223;BME280;67497;53.058;21.618;2024-01-16T10:13:52;99013.16;;;-3.68;54.03
78223;BME280;67497;53.058;21.618;2024-01-16T10:15:52;99025.72;;;-3.42;54.13
78223;BME280;67497;53.058;21.618;2024-01-16T10:17:55;99028.50;;;-3.43;53.98
78223;BME280;67497;53.058;21.618;2024-01-16T10:19:55;99036.25;;;-3.67;53.76
78223;BME280;67497;53.058;21.618;2024-01-16T10:22:03;99038.84;;;-3.94;53.78
78223;BME280;67497;53.058;21.618;2024-01-16T10:24:12;99044.19;;;-3.80;55.58
78223;BME280;67497;53.058;21.618;2024-01-16T10:26:13;99044.09;;;-3.78;54.52
78223;BME280;67497;53.058;21.618;2024-01-16T10:28:19;99047.53;;;-3.62;54.63
78223;BME280;67497;53.058;21.618;2024-01-16T10:30:21;99048.28;;;-4.02;54.16
78223;BME280;67497;53.058;21.618;2024-01-16T10:34:29;99057.66;;;-3.95;54.33